Time;durP1;ratioP1;P1;durP2;ratioP2;P2;SDS_P1;SDS_P2;PMS_P1;PMS_P2;Temp;Humidity;BMP_temperature;BMP_pressure;BME280_temperature;BME280_humidity;BME280_pressure;Samples;Min_cycle;Max_cycle;Signal;HPM_P1;HPM_P2
2022/05/27 00:05:20;;;;;;;3.13;2.92;;;;;;;22.04;58.31;95572.31;5062562;28;20229;-72
2022/05/27 00:08:06;;;;;;;4.10;3.15;;;;;;;21.84;59.33;95575.44;5057213;28;20225;-72
2022/05/27 00:10:34;;;;;;;4.00;3.20;;;;;;;21.77;59.51;95574.25;5061566;28;20314;-72
2022/05/27 00:13:00;;;;;;;4.07;2.83;;;;;;;21.82;59.39;95582.47;5057629;28;20626;-71
2022/05/27 00:15:29;;;;;;;2.85;2.63;;;;;;;21.71;59.48;95572.91;5059821;28;20679;-71
2022/05/27 00:17:56;;;;;;;3.28;2.88;;;;;;;21.83;59.74;95576.38;5063782;28;20234;-71
2022/05/27 00:20:22;;;;;;;3.30;3.05;;;;;;;21.66;59.81;95583.56;5061762;28;20198;-71
2022/05/27 00:22:49;;;;;;;3.80;3.50;;;;;;;21.85;60.07;95579.69;5062747;28;20200;-70
2022/05/27 00:25:16;;;;;;;4.75;3.00;;;;;;;21.94;59.48;95579.06;5062695;28;20209;-72
2022/05/27 00:27:43;;;;;;;5.18;2.65;;;;;;;21.82;59.68;95572.97;5062645;28;20197;-71
2022/05/27 00:30:10;;;;;;;5.38;3.20;;;;;;;21.61;60.33;95570.09;5062415;28;20221;-70
2022/05/27 00:32:39;;;;;;;4.93;4.18;;;;;;;21.50;60.89;95567.44;5061771;28;20288;-71
2022/05/27 00:35:07;;;;;;;4.70;3.15;;;;;;;21.34;61.57;95559.88;5064103;28;20646;-72
2022/05/27 00:37:34;;;;;;;4.32;4.03;;;;;;;21.34;61.44;95562.47;5062582;28;20260;-72
2022/05/27 00:40:01;;;;;;;4.50;3.53;;;;;;;21.36;61.49;95567.53;5063652;28;20681;-71
2022/05/27 00:42:28;;;;;;;6.05;4.20;;;;;;;21.23;61.85;95569.31;5063439;28;20722;-72
2022/05/27 00:44:54;;;;;;;7.03;3.83;;;;;;;21.11;62.38;95568.34;5063381;28;20868;-72
2022/05/27 00:47:23;;;;;;;5.32;3.53;;;;;;;20.87;62.97;95563.06;5063566;28;20205;-71
2022/05/27 00:49:54;;;;;;;3.65;3.35;;;;;;;20.84;63.23;95565.84;5063813;28;20217;-71
2022/05/27 00:52:24;;;;;;;5.32;3.90;;;;;;;21.04;62.81;95565.34;5062161;28;20315;-72
2022/05/27 00:54:52;;;;;;;6.60;4.93;;;;;;;21.10;62.63;95569.28;5064253;28;20186;-71
2022/05/27 00:57:23;;;;;;;4.22;4.00;;;;;;;21.11;62.38;95557.19;5063695;28;20737;-71
2022/05/27 00:59:54;;;;;;;5.13;3.70;;;;;;;21.10;62.46;95564.09;5062754;28;20291;-70
2022/05/27 01:02:21;;;;;;;3.88;3.50;;;;;;;21.03;62.67;95568.03;5055879;28;20862;-70
2022/05/27 01:04:50;;;;;;;6.07;4.00;;;;;;;20.80;63.31;95563.53;5060772;28;20214;-70
2022/05/27 01:07:18;;;;;;;6.78;3.80;;;;;;;20.90;63.21;95562.03;5064698;28;20225;-71
2022/05/27 01:09:49;;;;;;;4.32;3.50;;;;;;;20.83;63.49;95561.59;5063528;28;20202;-70
2022/05/27 01:12:51;;;;;;;3.50;3.28;;;;;;;20.89;63.52;95555.19;5061034;28;20248;-72
2022/05/27 01:15:28;;;;;;;4.00;3.72;;;;;;;20.81;63.48;95539.38;5060552;28;20282;-72
2022/05/27 01:18:12;;;;;;;6.40;3.90;;;;;;;20.80;63.69;95554.03;5060326;28;20256;-72
2022/05/27 01:20:46;;;;;;;3.65;3.30;;;;;;;20.41;64.84;95543.75;5058597;28;20836;-72
2022/05/27 01:23:53;;;;;;;3.58;3.28;;;;;;;19.97;66.84;95542.22;5061051;28;20205;-72
2022/05/27 01:26:56;;;;;;;4.63;3.80;;;;;;;20.10;66.39;95540.50;5061640;28;20243;-72
2022/05/27 01:29:52;;;;;;;4.07;3.72;;;;;;;20.43;64.59;95539.31;5061906;28;20282;-71
2022/05/27 01:32:33;;;;;;;3.25;3.05;;;;;;;20.35;65.12;95535.44;5060226;28;20207;-72
2022/05/27 01:35:08;;;;;;;3.33;3.13;;;;;;;20.41;65.09;95544.56;5061156;28;20245;-72
2022/05/27 01:37:43;;;;;;;5.07;3.70;;;;;;;20.49;64.13;95538.91;5060866;28;20256;-72
2022/05/27 01:40:19;;;;;;;4.32;3.63;;;;;;;20.24;64.70;95540.47;5060275;28;20258;-72
2022/05/27 01:42:56;;;;;;;3.50;3.25;;;;;;;20.27;64.98;95536.88;5060957;28;20204;-72
2022/05/27 01:45:29;;;;;;;4.32;3.28;;;;;;;20.08;65.25;95532.03;5062125;28;21034;-72
2022/05/27 01:48:03;;;;;;;3.05;2.75;;;;;;;20.21;65.09;95545.81;5061635;28;20202;-72
2022/05/27 01:50:35;;;;;;;5.40;3.35;;;;;;;20.23;64.88;95531.06;5061369;28;20221;-71
2022/05/27 01:53:09;;;;;;;4.90;3.40;;;;;;;20.05;65.99;95537.38;5061555;28;20275;-72
2022/05/27 01:55:41;;;;;;;4.18;3.60;;;;;;;19.86;67.08;95542.03;5062323;28;20204;-72
2022/05/27 01:58:14;;;;;;;5.07;3.42;;;;;;;19.88;66.80;95530.72;5061959;28;20264;-72
2022/05/27 02:00:44;;;;;;;5.57;3.67;;;;;;;19.89;66.54;95534.94;5061114;28;20215;-72
2022/05/27 02:03:19;;;;;;;3.53;3.22;;;;;;;19.72;66.28;95542.09;5061671;28;20613;-72
2022/05/27 02:06:04;;;;;;;5.95;3.47;;;;;;;19.70;66.80;95548.16;5061655;28;20221;-72
2022/05/27 02:08:35;;;;;;;3.72;3.40;;;;;;;19.90;66.27;95543.50;5060959;28;20757;-72
2022/05/27 02:11:05;;;;;;;5.10;3.45;;;;;;;19.89;66.04;95537.53;5061032;28;21742;-71
2022/05/27 02:13:38;;;;;;;5.70;3.40;;;;;;;19.86;66.24;95536.88;5060785;28;20283;-72
2022/05/27 02:16:06;;;;;;;4.28;3.70;;;;;;;19.95;66.04;95531.16;5062482;28;20201;-72
2022/05/27 02:18:39;;;;;;;4.90;3.88;;;;;;;19.93;66.48;95533.84;5061955;28;20318;-72
2022/05/27 02:21:13;;;;;;;3.95;3.72;;;;;;;20.04;66.24;95536.56;5061240;28;20330;-72
2022/05/27 02:23:43;;;;;;;5.53;3.83;;;;;;;19.78;67.07;95533.97;5060962;28;20202;-71
2022/05/27 02:26:16;;;;;;;4.35;3.95;;;;;;;19.49;68.42;95533.16;5062398;28;20351;-71
2022/05/27 02:28:46;;;;;;;6.65;4.47;;;;;;;19.58;68.34;95553.22;5064503;28;20296;-71
2022/05/27 02:31:18;;;;;;;5.03;4.68;;;;;;;19.62;68.13;95552.97;5065251;28;20244;-72
2022/05/27 02:36:38;;;;;;;10.40;4.38;;;;;;;19.59;68.30;95545.41;5064858;28;20289;-72
2022/05/27 02:39:06;;;;;;;8.48;4.30;;;;;;;19.65;68.08;95550.19;5065554;28;20264;-71
2022/05/27 02:41:39;;;;;;;6.07;4.15;;;;;;;19.77;67.80;95548.63;5064874;28;20205;-71
2022/05/27 02:44:16;;;;;;;4.28;3.97;;;;;;;19.80;67.29;95545.00;5065676;28;20661;-71
2022/05/27 02:46:50;;;;;;;4.63;4.28;;;;;;;19.89;67.15;95541.84;5064227;28;20661;-72
2022/05/27 02:49:27;;;;;;;6.70;4.10;;;;;;;19.86;66.97;95544.63;5065241;28;20305;-71
2022/05/27 02:52:06;;;;;;;5.45;4.45;;;;;;;19.85;67.01;95545.53;5065078;28;20229;-71
2022/05/27 02:54:42;;;;;;;4.28;3.50;;;;;;;19.61;67.37;95543.56;5064766;28;20283;-71
2022/05/27 02:57:17;;;;;;;4.38;4.00;;;;;;;19.48;67.46;95531.50;5064862;28;20197;-74
2022/05/27 02:59:45;;;;;;;4.75;3.80;;;;;;;19.55;67.20;95536.19;5064830;28;20634;-73
2022/05/27 03:02:15;;;;;;;5.72;4.00;;;;;;;19.67;66.48;95543.19;5064138;28;21934;-73
2022/05/27 03:04:48;;;;;;;6.97;4.47;;;;;;;19.64;66.68;95545.13;5066241;28;20291;-72
2022/05/27 03:07:28;;;;;;;4.15;3.85;;;;;;;19.55;66.95;95553.44;5064853;28;20316;-73
2022/05/27 03:10:01;;;;;;;7.13;3.85;;;;;;;19.52;66.82;95549.31;5065591;28;20217;-73
2022/05/27 03:12:40;;;;;;;5.22;4.50;;;;;;;19.50;67.37;95550.28;5062792;28;20234;-72
2022/05/27 03:15:22;;;;;;;6.00;3.65;;;;;;;19.53;67.25;95552.72;5064586;28;20664;-72
2022/05/27 03:18:03;;;;;;;6.65;3.92;;;;;;;19.72;66.47;95549.81;5065499;28;20242;-73
2022/05/27 03:20:48;;;;;;;4.68;4.28;;;;;;;19.77;66.05;95552.94;5064395;28;20287;-73
2022/05/27 03:23:33;;;;;;;5.60;3.90;;;;;;;19.87;65.88;95549.69;5064992;28;20266;-73
2022/05/27 03:26:06;;;;;;;4.00;3.53;;;;;;;20.11;64.99;95541.31;5064193;28;20206;-74
2022/05/27 03:28:39;;;;;;;8.18;3.85;;;;;;;20.45;63.85;95546.03;5063912;28;20193;-73
2022/05/27 03:31:13;;;;;;;6.53;3.80;;;;;;;20.99;62.42;95562.25;5064542;28;20201;-73
2022/05/27 03:33:47;;;;;;;6.07;3.92;;;;;;;21.39;60.83;95549.25;5061789;28;20249;-73
2022/05/27 03:36:20;;;;;;;7.43;3.83;;;;;;;21.62;59.94;95551.06;5063679;28;20286;-73
2022/05/27 03:38:54;;;;;;;10.73;4.00;;;;;;;22.17;58.55;95556.75;5061919;28;20245;-73
2022/05/27 03:41:26;;;;;;;5.13;4.65;;;;;;;21.47;59.69;95552.13;5064391;28;21598;-73
2022/05/27 03:43:53;;;;;;;6.15;4.28;;;;;;;20.84;62.17;95555.50;5065458;28;20209;-73
2022/05/27 03:46:32;;;;;;;5.57;4.45;;;;;;;21.52;60.57;95549.25;5063176;28;20206;-73
2022/05/27 03:48:59;;;;;;;4.25;3.95;;;;;;;21.59;60.19;95540.09;5063387;28;21736;-73
2022/05/27 03:51:32;;;;;;;4.28;3.90;;;;;;;21.62;59.86;95552.81;5062828;28;20205;-73
2022/05/27 03:54:04;;;;;;;8.13;4.68;;;;;;;21.02;61.81;95550.88;5062633;28;20260;-73
2022/05/27 03:56:33;;;;;;;19.20;13.65;;;;;;;20.56;63.49;95551.31;5062764;28;20254;-72
2022/05/27 03:59:00;;;;;;;14.70;11.30;;;;;;;20.63;63.35;95550.00;5063004;28;20234;-72
2022/05/27 04:01:29;;;;;;;8.10;5.80;;;;;;;20.99;62.42;95545.91;5063806;28;20678;-72
2022/05/27 04:03:57;;;;;;;5.30;4.97;;;;;;;21.15;61.37;95556.03;5063463;28;20216;-72
2022/05/27 04:06:24;;;;;;;11.52;5.03;;;;;;;21.59;60.27;95551.28;5063574;28;20202;-72
2022/05/27 04:08:53;;;;;;;10.48;4.95;;;;;;;21.71;60.15;95563.38;5063851;28;20697;-72
2022/05/27 04:11:20;;;;;;;5.68;4.03;;;;;;;21.70;59.87;95564.31;5064968;28;20198;-72
2022/05/27 04:13:48;;;;;;;6.55;4.20;;;;;;;21.75;58.83;95550.22;5064162;28;20201;-72
2022/05/27 04:16:15;;;;;;;10.40;6.15;;;;;;;21.83;58.94;95558.25;5064651;28;20229;-72
2022/05/27 04:18:42;;;;;;;6.55;6.03;;;;;;;21.64;59.71;95554.38;5063325;28;20314;-72
2022/05/27 04:21:09;;;;;;;5.20;4.55;;;;;;;21.44;60.58;95560.09;5064912;28;20793;-72
2022/05/27 04:23:36;;;;;;;10.98;5.15;;;;;;;21.03;61.98;95558.50;5063934;28;20251;-72
2022/05/27 04:26:05;;;;;;;8.88;3.88;;;;;;;21.45;61.10;95558.34;5064335;28;20699;-72
2022/05/27 04:28:32;;;;;;;5.30;4.10;;;;;;;21.90;59.79;95551.72;5062496;28;20237;-71
2022/05/27 04:30:58;;;;;;;4.70;4.30;;;;;;;21.91;59.15;95546.44;5061892;28;20256;-72
2022/05/27 04:33:27;;;;;;;7.78;4.07;;;;;;;21.99;59.07;95553.69;5063609;28;20220;-72
2022/05/27 04:35:54;;;;;;;3.83;3.53;;;;;;;22.19;58.70;95555.72;5064724;28;20725;-72
2022/05/27 04:38:22;;;;;;;10.75;9.48;;;;;;;22.01;58.85;95546.66;5064342;28;20325;-72
2022/05/27 04:40:48;;;;;;;15.68;11.40;;;;;;;22.08;58.49;95555.63;5063938;28;20225;-72
2022/05/27 04:43:18;;;;;;;11.05;8.20;;;;;;;21.90;58.75;95547.38;5062638;28;20208;-72
2022/05/27 04:45:45;;;;;;;5.63;4.47;;;;;;;21.91;59.12;95549.03;5063804;28;20198;-72
2022/05/27 04:48:13;;;;;;;8.23;4.30;;;;;;;22.33;57.80;95552.94;5064127;28;20290;-72
2022/05/27 04:50:41;;;;;;;9.40;7.65;;;;;;;22.70;56.56;95556.28;5063029;28;20202;-71
2022/05/27 04:53:09;;;;;;;15.93;11.65;;;;;;;22.80;56.26;95553.84;5063213;28;20270;-72
2022/05/27 04:55:37;;;;;;;10.85;6.82;;;;;;;22.41;57.54;95554.97;5063307;28;20198;-72
2022/05/27 04:58:05;;;;;;;5.25;4.75;;;;;;;22.95;56.38;95552.72;5061531;28;20283;-72
2022/05/27 05:00:36;;;;;;;7.30;3.75;;;;;;;23.03;55.63;95541.78;5062682;28;20682;-72
2022/05/27 05:03:03;;;;;;;7.38;4.22;;;;;;;23.12;55.93;95550.63;5060429;28;20263;-72
2022/05/27 05:05:32;;;;;;;9.18;4.40;;;;;;;23.41;54.98;95544.88;5061778;28;21073;-72
2022/05/27 05:08:01;;;;;;;7.22;4.35;;;;;;;23.94;53.77;95544.28;5061221;28;20318;-72
2022/05/27 05:10:28;;;;;;;7.15;4.65;;;;;;;24.70;51.80;95543.38;5061181;28;20202;-72
2022/05/27 05:12:56;;;;;;;4.75;4.20;;;;;;;25.68;49.28;95544.66;5060746;28;20316;-72
2022/05/27 05:15:24;;;;;;;4.22;3.83;;;;;;;26.60;46.76;95547.06;5061769;28;20309;-72
2022/05/27 05:17:52;;;;;;;8.50;4.05;;;;;;;28.17;43.96;95540.31;5060732;28;20699;-71
2022/05/27 05:20:23;;;;;;;5.57;4.00;;;;;;;30.14;39.24;95543.25;5061426;28;20221;-71
2022/05/27 05:22:50;;;;;;;6.75;4.18;;;;;;;31.77;36.15;95539.66;5061100;28;20198;-72
2022/05/27 05:25:16;;;;;;;8.10;4.15;;;;;;;33.16;33.46;95544.09;5060921;28;20199;-72
2022/05/27 05:27:44;;;;;;;9.60;4.13;;;;;;;33.70;31.91;95534.16;5060583;28;20385;-72
2022/05/27 05:30:13;;;;;;;6.43;4.38;;;;;;;34.59;30.52;95535.69;5063490;28;20680;-71
2022/05/27 05:32:40;;;;;;;5.30;3.92;;;;;;;34.53;30.93;95530.34;5062508;28;20205;-72
2022/05/27 05:35:10;;;;;;;6.10;3.40;;;;;;;35.01;30.12;95529.59;5063609;28;20280;-72
2022/05/27 05:37:37;;;;;;;10.23;4.22;;;;;;;35.14;29.28;95532.31;5062605;28;20233;-72
2022/05/27 05:40:04;;;;;;;8.70;4.43;;;;;;;35.37;29.17;95533.97;5062098;28;20226;-72
2022/05/27 05:42:31;;;;;;;6.97;4.25;;;;;;;35.44;29.17;95529.50;5062291;28;20209;-72
2022/05/27 05:44:59;;;;;;;11.10;5.88;;;;;;;35.52;29.43;95521.44;5063396;28;20190;-72
2022/05/27 05:47:25;;;;;;;14.02;5.70;;;;;;;35.91;28.95;95526.13;5062579;28;20698;-72
2022/05/27 05:49:52;;;;;;;6.35;4.85;;;;;;;35.90;28.54;95528.97;5063662;28;20221;-72
2022/05/27 05:52:20;;;;;;;5.03;3.83;;;;;;;35.53;29.65;95527.53;5061389;28;21057;-72
2022/05/27 05:54:47;;;;;;;8.55;3.75;;;;;;;35.64;29.61;95530.44;5061887;28;20267;-73
2022/05/27 05:57:14;;;;;;;16.40;7.13;;;;;;;35.65;29.00;95526.78;5062508;28;20665;-72
2022/05/27 05:59:41;;;;;;;12.93;5.05;;;;;;;35.61;29.21;95533.50;5063569;28;20244;-72
2022/05/27 06:02:09;;;;;;;8.80;5.18;;;;;;;35.75;29.35;95534.38;5061962;28;20217;-72
2022/05/27 06:04:35;;;;;;;17.25;9.50;;;;;;;35.48;28.74;95530.75;5061806;28;20306;-72
2022/05/27 06:07:03;;;;;;;13.52;10.25;;;;;;;35.29;29.49;95531.47;5062491;28;20200;-72
2022/05/27 06:09:31;;;;;;;6.70;4.13;;;;;;;35.09;29.78;95540.03;5062828;28;20586;-74
2022/05/27 06:12:01;;;;;;;9.38;4.55;;;;;;;35.77;28.63;95530.56;5061690;28;20201;-73
2022/05/27 06:14:28;;;;;;;11.18;3.95;;;;;;;35.61;29.05;95528.22;5063307;28;20209;-73
2022/05/27 06:16:54;;;;;;;5.13;3.70;;;;;;;35.30;29.39;95533.09;5061975;28;20274;-73
2022/05/27 06:19:21;;;;;;;4.03;3.70;;;;;;;35.04;29.70;95529.22;5062325;28;20310;-72
2022/05/27 06:21:48;;;;;;;4.90;3.42;;;;;;;34.21;30.84;95521.84;5060986;28;20230;-73
2022/05/27 06:24:15;;;;;;;10.90;3.67;;;;;;;32.65;33.43;95528.84;5063338;28;20270;-72
2022/05/27 06:26:43;;;;;;;6.55;3.38;;;;;;;32.12;34.73;95527.00;5062147;28;20190;-73
2022/05/27 06:34:38;;;;;;;4.55;4.25;;;;;;;33.19;33.27;95530.53;5062365;28;20251;-73
2022/05/27 06:37:08;;;;;;;11.23;5.72;;;;;;;33.23;32.83;95521.28;5061449;28;20233;-73
2022/05/27 06:39:36;;;;;;;10.77;5.40;;;;;;;33.18;32.94;95523.63;5062568;28;20257;-72
2022/05/27 06:42:08;;;;;;;8.25;4.70;;;;;;;32.89;33.39;95517.34;5061770;28;20639;-73
2022/05/27 06:44:35;;;;;;;6.75;3.88;;;;;;;32.94;33.31;95506.25;5059797;28;20194;-73
2022/05/27 06:47:02;;;;;;;5.60;4.32;;;;;;;32.23;34.61;95505.59;5059927;28;20760;-73
2022/05/27 06:49:29;;;;;;;10.48;3.55;;;;;;;31.87;35.11;95502.66;5060404;28;20198;-73
2022/05/27 06:51:56;;;;;;;8.25;5.18;;;;;;;31.50;35.86;95505.88;5059196;28;20571;-72
2022/05/27 06:54:22;;;;;;;8.80;5.30;;;;;;;31.52;34.91;95498.66;5060703;28;20374;-73
2022/05/27 06:56:52;;;;;;;7.97;5.40;;;;;;;30.96;36.20;95508.25;5058958;28;20630;-73
2022/05/27 06:59:23;;;;;;;7.05;5.15;;;;;;;31.07;36.58;95504.47;5060344;28;20229;-72
2022/05/27 07:01:49;;;;;;;7.75;6.28;;;;;;;30.90;37.13;95513.34;5060464;28;20856;-73
2022/05/27 07:04:18;;;;;;;7.68;4.78;;;;;;;30.48;37.56;95502.97;5060185;28;20781;-73
2022/05/27 07:06:47;;;;;;;8.60;4.00;;;;;;;30.20;37.58;95511.13;5060505;28;20208;-71
2022/05/27 07:09:15;;;;;;;4.93;3.60;;;;;;;30.03;37.64;95498.97;5060936;28;20225;-71
2022/05/27 07:11:45;;;;;;;5.25;3.20;;;;;;;29.84;37.87;95494.78;5060032;28;20203;-71
2022/05/27 07:14:13;;;;;;;5.53;3.38;;;;;;;29.98;38.17;95485.47;5063242;28;20882;-72
2022/05/27 07:16:42;;;;;;;8.70;4.20;;;;;;;30.18;37.35;95492.13;5064864;28;20205;-72
2022/05/27 07:19:09;;;;;;;11.13;4.40;;;;;;;30.15;38.06;95481.97;5065176;28;20229;-72
2022/05/27 07:21:39;;;;;;;11.18;6.32;;;;;;;30.36;37.26;95473.63;5064938;28;20307;-72
2022/05/27 07:24:08;;;;;;;6.15;5.32;;;;;;;30.32;38.64;95474.94;5064682;28;21098;-72
2022/05/27 07:26:35;;;;;;;5.47;4.10;;;;;;;30.36;37.13;95471.00;5064834;28;20307;-72
2022/05/27 07:29:02;;;;;;;7.45;4.10;;;;;;;30.17;38.20;95474.75;5065986;28;20572;-72
2022/05/27 07:31:29;;;;;;;5.35;4.00;;;;;;;30.20;37.02;95476.22;5064962;28;20568;-73
2022/05/27 07:33:58;;;;;;;7.55;3.55;;;;;;;30.30;37.77;95463.78;5064948;28;20271;-72
2022/05/27 07:36:25;;;;;;;5.57;3.67;;;;;;;30.31;37.78;95461.00;5065056;28;21202;-72
2022/05/27 07:38:52;;;;;;;3.50;2.90;;;;;;;30.54;36.44;95455.09;5064315;28;20658;-72
2022/05/27 07:41:20;;;;;;;4.72;3.30;;;;;;;30.46;36.79;95451.50;5064556;28;20224;-73
2022/05/27 07:43:47;;;;;;;7.53;3.10;;;;;;;29.89;38.05;95455.84;5065309;28;20225;-72
2022/05/27 07:46:16;;;;;;;5.88;2.47;;;;;;;29.46;36.88;95446.34;5065529;28;20209;-72
2022/05/27 07:48:43;;;;;;;3.90;3.50;;;;;;;29.30;37.83;95438.41;5064501;28;20216;-72
2022/05/27 07:51:12;;;;;;;7.82;3.40;;;;;;;29.39;38.03;95461.03;5064434;28;20202;-71
2022/05/27 07:53:39;;;;;;;9.02;3.22;;;;;;;29.80;38.11;95454.16;5063620;28;20271;-72
2022/05/27 07:56:07;;;;;;;5.20;3.22;;;;;;;30.14;36.96;95453.28;5064675;28;20220;-72
2022/05/27 07:58:34;;;;;;;3.80;2.83;;;;;;;30.08;35.92;95439.84;5064788;28;20293;-71
2022/05/27 08:01:01;;;;;;;4.57;4.28;;;;;;;30.13;35.84;95454.28;5064459;28;20653;-71
2022/05/27 08:03:28;;;;;;;5.68;2.95;;;;;;;30.20;35.96;95453.44;5063910;28;20221;-71
2022/05/27 08:05:56;;;;;;;4.68;2.67;;;;;;;29.74;35.86;95446.94;5064567;28;20406;-72
2022/05/27 08:08:24;;;;;;;10.35;2.80;;;;;;;29.56;37.58;95441.00;5064262;28;20486;-72
2022/05/27 08:10:51;;;;;;;9.90;3.13;;;;;;;29.51;37.12;95430.97;5064162;28;20251;-72
2022/05/27 08:13:18;;;;;;;6.15;3.13;;;;;;;29.50;37.50;95439.00;5063981;28;20755;-72
2022/05/27 08:15:45;;;;;;;5.93;2.40;;;;;;;29.82;36.93;95443.53;5064103;28;20266;-71
2022/05/27 08:18:12;;;;;;;6.22;2.90;;;;;;;29.68;37.06;95434.50;5062191;28;20229;-72
2022/05/27 08:20:40;;;;;;;3.67;3.13;;;;;;;29.09;37.57;95430.94;5062575;28;21711;-72
2022/05/27 08:23:07;;;;;;;7.30;3.05;;;;;;;28.84;38.24;95429.97;5061808;28;20206;-72
2022/05/27 08:25:37;;;;;;;7.88;4.72;;;;;;;29.13;39.01;95431.44;5061592;28;20265;-71
2022/05/27 08:28:04;;;;;;;3.45;3.13;;;;;;;29.70;38.20;95425.47;5062367;28;20550;-73
2022/05/27 08:30:33;;;;;;;7.03;2.95;;;;;;;29.91;37.81;95426.84;5061924;28;20291;-73
2022/05/27 08:33:01;;;;;;;4.78;2.97;;;;;;;30.10;37.13;95418.72;5061491;28;20202;-73
2022/05/27 08:38:18;;;;;;;4.88;3.40;;;;;;;30.18;37.42;95391.69;5061693;28;20742;-73
2022/05/27 08:41:14;;;;;;;5.53;3.30;;;;;;;30.34;37.19;95412.66;5062886;28;20348;-73
2022/05/27 08:43:54;;;;;;;8.10;3.50;;;;;;;30.70;36.65;95408.72;5061936;28;20875;-73
2022/05/27 08:46:31;;;;;;;5.30;2.88;;;;;;;30.10;36.65;95411.66;5062786;28;20619;-72
2022/05/27 08:49:02;;;;;;;4.65;2.90;;;;;;;30.30;36.41;95404.31;5063973;28;20611;-73
2022/05/27 08:51:37;;;;;;;7.13;3.42;;;;;;;30.48;36.86;95404.13;5063009;28;20632;-72
2022/05/27 08:54:08;;;;;;;7.05;3.78;;;;;;;30.64;36.53;95400.72;5063688;28;20197;-73
2022/05/27 08:59:31;;;;;;;5.57;2.92;;;;;;;29.57;37.20;95400.72;5060752;28;20558;-72
2022/05/27 09:02:04;;;;;;;6.00;4.13;;;;;;;29.26;38.59;95393.38;5059979;28;20207;-72
2022/05/27 09:04:37;;;;;;;4.93;3.20;;;;;;;29.26;39.91;95395.19;5064485;28;20202;-72
2022/05/27 09:07:15;;;;;;;3.78;3.13;;;;;;;29.26;38.90;95396.00;5060184;28;20209;-72
2022/05/27 09:09:42;;;;;;;5.25;3.30;;;;;;;29.54;38.59;95394.00;5062943;28;20290;-72
2022/05/27 09:12:26;;;;;;;3.88;2.95;;;;;;;29.85;38.71;95390.81;5062137;28;20216;-72
2022/05/27 09:15:01;;;;;;;8.98;4.97;;;;;;;29.94;38.09;95395.09;5062279;28;20190;-73
2022/05/27 09:17:42;;;;;;;5.05;3.30;;;;;;;30.08;37.17;95386.59;5060623;28;20209;-72
2022/05/27 09:20:21;;;;;;;8.80;3.35;;;;;;;30.34;36.99;95382.03;5061756;28;20229;-71
2022/05/27 09:23:01;;;;;;;4.30;2.78;;;;;;;30.17;37.01;95380.38;5060193;28;21495;-72
2022/05/27 09:25:35;;;;;;;3.05;2.83;;;;;;;30.32;36.79;95375.31;5061249;28;20275;-71
2022/05/27 09:28:14;;;;;;;3.67;3.00;;;;;;;30.31;36.62;95371.84;5060352;28;20205;-72
2022/05/27 09:30:42;;;;;;;6.40;3.22;;;;;;;30.37;36.57;95371.19;5062114;28;20193;-72
2022/05/27 09:33:13;;;;;;;35.53;24.35;;;;;;;30.44;36.46;95366.91;5059201;28;20202;-72
2022/05/27 09:35:44;;;;;;;27.13;18.85;;;;;;;30.32;37.25;95365.63;5060796;28;20295;-73
2022/05/27 09:38:18;;;;;;;9.55;6.40;;;;;;;30.12;36.46;95359.09;5059549;28;20209;-72
2022/05/27 09:40:48;;;;;;;5.80;4.00;;;;;;;30.31;36.43;95356.13;5060931;28;20258;-72
2022/05/27 09:43:21;;;;;;;5.07;4.22;;;;;;;30.55;36.05;95342.16;5060066;28;20201;-72
2022/05/27 09:45:52;;;;;;;3.92;3.50;;;;;;;30.50;36.32;95343.63;5061341;28;20617;-72
2022/05/27 09:48:19;;;;;;;5.38;4.50;;;;;;;30.64;36.67;95345.63;5061741;28;20205;-72
2022/05/27 09:50:48;;;;;;;11.27;4.43;;;;;;;30.79;35.59;95343.94;5063022;28;20219;-72
2022/05/27 09:53:17;;;;;;;12.10;9.77;;;;;;;30.83;35.35;95344.41;5060774;28;20731;-74
2022/05/27 09:55:49;;;;;;;15.32;9.77;;;;;;;30.69;36.28;95333.63;5062480;28;20208;-73
2022/05/27 09:58:24;;;;;;;15.80;12.48;;;;;;;31.05;35.48;95336.63;5060239;28;20735;-72
2022/05/27 10:00:51;;;;;;;7.35;6.28;;;;;;;31.07;34.65;95326.78;5059509;28;20223;-73
2022/05/27 10:03:32;;;;;;;14.35;6.47;;;;;;;30.95;35.06;95322.06;5060075;28;21428;-72
2022/05/27 10:06:02;;;;;;;11.90;7.18;;;;;;;30.96;34.88;95319.25;5060639;28;20190;-72
2022/05/27 10:08:33;;;;;;;10.82;5.47;;;;;;;30.99;33.88;95325.97;5060566;28;20263;-73
2022/05/27 10:11:17;;;;;;;38.10;28.88;;;;;;;30.71;35.07;95315.09;5065516;28;20290;-74
2022/05/27 10:13:46;;;;;;;16.52;10.02;;;;;;;30.82;33.80;95317.34;5076498;28;20197;-74
2022/05/27 10:16:21;;;;;;;8.25;7.25;;;;;;;31.00;34.48;95304.81;5083308;28;20194;-74
2022/05/27 10:18:48;;;;;;;13.52;11.93;;;;;;;30.92;34.94;95312.75;5077905;28;20202;-74
2022/05/27 10:21:18;;;;;;;5.38;3.33;;;;;;;30.74;33.72;95301.63;5068325;28;20815;-76
2022/05/27 10:23:48;;;;;;;11.88;6.65;;;;;;;30.76;34.67;95308.34;5068805;28;20282;-78
2022/05/27 10:26:25;;;;;;;11.30;8.05;;;;;;;30.77;35.14;95306.53;5068943;28;20198;-79
2022/05/27 10:29:03;;;;;;;12.68;6.28;;;;;;;30.79;33.70;95296.69;5077777;28;20197;-78
2022/05/27 10:31:30;;;;;;;6.30;4.22;;;;;;;30.92;33.82;95291.75;5086986;28;20193;-76
2022/05/27 10:33:58;;;;;;;12.30;6.15;;;;;;;31.01;33.30;95292.50;5086012;28;20271;-79
2022/05/27 10:36:56;;;;;;;18.23;7.40;;;;;;;30.89;33.18;95286.84;5088467;28;20205;-78
2022/05/27 10:39:29;;;;;;;16.35;10.00;;;;;;;31.01;32.53;95282.81;5074079;28;20230;-76
2022/05/27 10:42:10;;;;;;;8.73;7.80;;;;;;;30.79;31.77;95276.53;5066713;28;20285;-77
2022/05/27 10:44:52;;;;;;;19.40;11.52;;;;;;;30.58;31.61;95273.66;5068967;28;20653;-77
2022/05/27 10:47:30;;;;;;;6.25;4.07;;;;;;;30.50;32.81;95276.25;5069279;28;20260;-76
2022/05/27 10:50:07;;;;;;;16.70;10.73;;;;;;;30.70;32.32;95263.59;5073292;28;20241;-79
2022/05/27 10:53:10;;;;;;;15.20;9.30;;;;;;;31.11;32.65;95267.72;5072232;28;20657;-80
2022/05/27 10:55:47;;;;;;;18.88;11.27;;;;;;;31.35;31.96;95260.69;5040854;28;20206;-76
2022/05/27 11:04:45;;;;;;;12.52;3.83;;;;;;;31.19;31.78;95255.53;5073785;28;20204;-77
2022/05/27 11:07:31;;;;;;;9.93;7.70;;;;;;;31.03;31.27;95246.72;5073361;28;20252;-79
2022/05/27 11:10:12;;;;;;;6.28;5.20;;;;;;;31.17;32.05;95242.59;5074425;28;20275;-76
2022/05/27 11:15:47;;;;;;;19.92;12.65;;;;;;;31.01;31.42;95232.97;5074275;28;20596;-79
2022/05/27 11:18:30;;;;;;;18.65;12.15;;;;;;;31.06;32.00;95225.38;5074022;28;20198;-78
2022/05/27 11:21:16;;;;;;;8.02;4.60;;;;;;;30.92;31.59;95227.94;5074042;28;20238;-78
2022/05/27 11:24:24;;;;;;;12.45;7.10;;;;;;;31.07;32.00;95227.03;5073809;28;20253;-76
2022/05/27 11:27:04;;;;;;;19.13;4.55;;;;;;;30.71;32.56;95210.16;5070554;28;20216;-75
2022/05/27 11:30:04;;;;;;;14.80;4.22;;;;;;;30.79;32.60;95210.13;5073584;28;20618;-76
2022/05/27 11:32:44;;;;;;;7.07;3.42;;;;;;;30.76;31.89;95202.59;5057942;28;20256;-75
2022/05/27 11:35:21;;;;;;;9.70;3.95;;;;;;;30.86;32.28;95197.94;5073807;28;20210;-77
2022/05/27 11:38:00;;;;;;;9.00;4.47;;;;;;;30.82;33.35;95193.22;5073475;28;20697;-80
2022/05/27 11:40:36;;;;;;;6.32;4.43;;;;;;;31.01;33.51;95184.91;5081426;28;20233;-76
2022/05/27 11:43:28;;;;;;;8.20;5.30;;;;;;;30.96;33.60;95184.59;5093513;28;20190;-77
2022/05/27 11:46:05;;;;;;;85.47;51.50;;;;;;;31.20;32.79;95178.41;5080734;28;20297;-75
2022/05/27 11:48:44;;;;;;;9.27;7.20;;;;;;;31.13;32.44;95177.47;5071332;28;20194;-76
2022/05/27 11:51:26;;;;;;;24.25;12.30;;;;;;;31.22;33.19;95171.16;5071856;28;20248;-77
2022/05/27 11:54:09;;;;;;;17.77;11.02;;;;;;;31.10;32.96;95168.94;5071152;28;20195;-79
2022/05/27 11:56:49;;;;;;;19.33;11.40;;;;;;;30.95;33.25;95159.34;5088413;28;20193;-77
2022/05/27 11:59:24;;;;;;;16.40;9.32;;;;;;;30.93;33.80;95159.53;5091030;28;20280;-78
2022/05/27 12:01:56;;;;;;;14.40;10.18;;;;;;;30.96;33.42;95146.03;5090891;28;20268;-76
2022/05/27 12:04:33;;;;;;;15.18;12.57;;;;;;;30.90;33.25;95149.38;5091116;28;20198;-76
2022/05/27 12:07:13;;;;;;;12.38;10.07;;;;;;;30.81;33.81;95152.22;5070866;28;20193;-78
2022/05/27 12:09:47;;;;;;;14.90;10.15;;;;;;;30.87;32.68;95141.84;5072173;28;20198;-76
2022/05/27 12:12:22;;;;;;;18.77;7.40;;;;;;;30.83;32.80;95143.19;5091053;28;20185;-77
2022/05/27 12:14:55;;;;;;;11.90;8.23;;;;;;;30.98;32.96;95141.44;5087388;28;20200;-77
2022/05/27 12:17:29;;;;;;;7.18;4.80;;;;;;;31.00;32.79;95136.84;5072030;28;20270;-79
2022/05/27 12:19:59;;;;;;;13.48;7.60;;;;;;;31.20;32.59;95131.94;5081607;28;20220;-76
2022/05/27 12:22:32;;;;;;;12.05;6.90;;;;;;;31.08;32.94;95131.53;5074838;28;20734;-76